sensor_id;sensor_type;location;lat;lon;timestamp;P1;durP1;ratioP1;P2;durP2;ratioP2
17826;SDS011;9038;48.208;16.308;2022-12-26T00:01:26;26.67;;;19.13;;
17826;SDS011;9038;48.208;16.308;2022-12-26T00:03:29;31.13;;;20.80;;
17826;SDS011;9038;48.208;16.308;2022-12-26T00:05:33;26.97;;;20.43;;
17826;SDS011;9038;48.208;16.308;2022-12-26T00:07:36;26.43;;;20.20;;
17826;SDS011;9038;48.208;16.308;2022-12-26T00:09:38;26.27;;;19.60;;
17826;SDS011;9038;48.208;16.308;2022-12-26T00:11:40;27.37;;;19.20;;
17826;SDS011;9038;48.208;16.308;2022-12-26T00:13:42;24.40;;;18.33;;
17826;SDS011;9038;48.208;16.308;2022-12-26T00:15:46;26.10;;;20.10;;
17826;SDS011;9038;48.208;16.308;2022-12-26T00:17:47;27.87;;;19.87;;
17826;SDS011;9038;48.208;16.308;2022-12-26T00:19:49;18.47;;;16.30;;
17826;SDS011;9038;48.208;16.308;2022-12-26T00:21:51;21.67;;;17.70;;
17826;SDS011;9038;48.208;16.308;2022-12-26T00:23:54;21.90;;;17.77;;
17826;SDS011;9038;48.208;16.308;2022-12-26T00:26:00;22.90;;;17.67;;
17826;SDS011;9038;48.208;16.308;2022-12-26T00:28:03;22.73;;;17.80;;
17826;SDS011;9038;48.208;16.308;2022-12-26T00:30:06;24.47;;;18.23;;
17826;SDS011;9038;48.208;16.308;2022-12-26T00:32:10;27.30;;;18.53;;
17826;SDS011;9038;48.208;16.308;2022-12-26T00:34:12;22.60;;;18.47;;
17826;SDS011;9038;48.208;16.308;2022-12-26T00:36:15;26.43;;;19.17;;
17826;SDS011;9038;48.208;16.308;2022-12-26T00:38:18;31.00;;;21.23;;
17826;SDS011;9038;48.208;16.308;2022-12-26T00:40:20;34.27;;;22.60;;
17826;SDS011;9038;48.208;16.308;2022-12-26T00:42:22;33.27;;;22.30;;
17826;SDS011;9038;48.208;16.308;2022-12-26T00:44:23;32.87;;;21.03;;
17826;SDS011;9038;48.208;16.308;2022-12-26T00:46:25;29.13;;;21.33;;
17826;SDS011;9038;48.208;16.308;2022-12-26T00:48:29;27.70;;;19.67;;
17826;SDS011;9038;48.208;16.308;2022-12-26T00:50:31;26.47;;;20.33;;
17826;SDS011;9038;48.208;16.308;2022-12-26T00:52:33;23.73;;;18.93;;
17826;SDS011;9038;48.208;16.308;2022-12-26T00:54:35;27.53;;;19.63;;
17826;SDS011;9038;48.208;16.308;2022-12-26T00:56:37;27.30;;;18.93;;
17826;SDS011;9038;48.208;16.308;2022-12-26T00:58:39;25.37;;;18.10;;
17826;SDS011;9038;48.208;16.308;2022-12-26T01:00:42;24.73;;;18.30;;
17826;SDS011;9038;48.208;16.308;2022-12-26T01:02:44;25.97;;;18.97;;
17826;SDS011;9038;48.208;16.308;2022-12-26T01:04:47;25.17;;;19.20;;
17826;SDS011;9038;48.208;16.308;2022-12-26T01:06:49;22.90;;;17.87;;
17826;SDS011;9038;48.208;16.308;2022-12-26T01:08:51;25.40;;;18.73;;
17826;SDS011;9038;48.208;16.308;2022-12-26T01:10:53;23.50;;;18.00;;
17826;SDS011;9038;48.208;16.308;2022-12-26T01:12:55;22.47;;;16.90;;
17826;SDS011;9038;48.208;16.308;2022-12-26T01:14:57;24.60;;;17.80;;
17826;SDS011;9038;48.208;16.308;2022-12-26T01:17:00;24.17;;;17.50;;
17826;SDS011;9038;48.208;16.308;2022-12-26T01:19:02;21.63;;;17.40;;
17826;SDS011;9038;48.208;16.308;2022-12-26T01:21:07;23.53;;;18.37;;
17826;SDS011;9038;48.208;16.308;2022-12-26T01:23:10;23.37;;;18.23;;
17826;SDS011;9038;48.208;16.308;2022-12-26T01:25:12;23.60;;;18.60;;
17826;SDS011;9038;48.208;16.308;2022-12-26T01:27:14;25.40;;;19.47;;
17826;SDS011;9038;48.208;16.308;2022-12-26T01:29:16;26.17;;;19.53;;
17826;SDS011;9038;48.208;16.308;2022-12-26T01:31:18;26.67;;;20.20;;
17826;SDS011;9038;48.208;16.308;2022-12-26T01:33:21;34.23;;;22.13;;
17826;SDS011;9038;48.208;16.308;2022-12-26T01:35:23;34.93;;;22.37;;
17826;SDS011;9038;48.208;16.308;2022-12-26T01:37:27;35.07;;;21.90;;
17826;SDS011;9038;48.208;16.308;2022-12-26T01:39:29;49.60;;;24.70;;
17826;SDS011;9038;48.208;16.308;2022-12-26T01:41:31;111.70;;;29.00;;
17826;SDS011;9038;48.208;16.308;2022-12-26T01:43:44;77.33;;;26.77;;
17826;SDS011;9038;48.208;16.308;2022-12-26T01:45:47;58.97;;;27.87;;
17826;SDS011;9038;48.208;16.308;2022-12-26T01:47:51;47.40;;;26.07;;
17826;SDS011;9038;48.208;16.308;2022-12-26T01:49:57;69.73;;;28.07;;
17826;SDS011;9038;48.208;16.308;2022-12-26T01:51:59;66.80;;;27.53;;
17826;SDS011;9038;48.208;16.308;2022-12-26T01:54:06;104.47;;;29.60;;
17826;SDS011;9038;48.208;16.308;2022-12-26T01:56:13;112.77;;;30.23;;
17826;SDS011;9038;48.208;16.308;2022-12-26T01:58:20;94.73;;;31.80;;
17826;SDS011;9038;48.208;16.308;2022-12-26T02:00:27;183.37;;;34.60;;
17826;SDS011;9038;48.208;16.308;2022-12-26T02:02:29;167.37;;;35.73;;
17826;SDS011;9038;48.208;16.308;2022-12-26T02:04:52;56.20;;;28.50;;
17826;SDS011;9038;48.208;16.308;2022-12-26T02:07:25;76.57;;;27.87;;
17826;SDS011;9038;48.208;16.308;2022-12-26T02:09:28;69.23;;;28.97;;
17826;SDS011;9038;48.208;16.308;2022-12-26T02:11:31;98.20;;;29.67;;
17826;SDS011;9038;48.208;16.308;2022-12-26T02:13:37;56.43;;;27.27;;
17826;SDS011;9038;48.208;16.308;2022-12-26T02:15:38;63.63;;;30.00;;
17826;SDS011;9038;48.208;16.308;2022-12-26T02:17:42;56.83;;;28.77;;
17826;SDS011;9038;48.208;16.308;2022-12-26T02:19:46;54.07;;;27.13;;
17826;SDS011;9038;48.208;16.308;2022-12-26T02:24:32;63.23;;;27.50;;
17826;SDS011;9038;48.208;16.308;2022-12-26T02:27:01;53.40;;;27.87;;
17826;SDS011;9038;48.208;16.308;2022-12-26T02:29:38;87.40;;;29.33;;
17826;SDS011;9038;48.208;16.308;2022-12-26T02:32:04;66.97;;;28.67;;
17826;SDS011;9038;48.208;16.308;2022-12-26T02:34:15;58.17;;;28.83;;
17826;SDS011;9038;48.208;16.308;2022-12-26T02:36:23;54.50;;;29.30;;
17826;SDS011;9038;48.208;16.308;2022-12-26T02:38:40;72.00;;;28.93;;
17826;SDS011;9038;48.208;16.308;2022-12-26T02:40:54;51.47;;;27.97;;
17826;SDS011;9038;48.208;16.308;2022-12-26T02:43:05;53.93;;;27.80;;
17826;SDS011;9038;48.208;16.308;2022-12-26T02:45:17;100.50;;;30.80;;
17826;SDS011;9038;48.208;16.308;2022-12-26T02:47:47;136.53;;;30.60;;
17826;SDS011;9038;48.208;16.308;2022-12-26T02:49:57;99.80;;;30.30;;
17826;SDS011;9038;48.208;16.308;2022-12-26T02:52:24;120.20;;;29.67;;
17826;SDS011;9038;48.208;16.308;2022-12-26T02:54:50;160.90;;;32.93;;
17826;SDS011;9038;48.208;16.308;2022-12-26T02:57:16;65.87;;;29.40;;
17826;SDS011;9038;48.208;16.308;2022-12-26T02:59:40;117.07;;;30.60;;
17826;SDS011;9038;48.208;16.308;2022-12-26T03:02:05;84.67;;;30.23;;
17826;SDS011;9038;48.208;16.308;2022-12-26T03:04:40;48.03;;;27.60;;
17826;SDS011;9038;48.208;16.308;2022-12-26T03:07:02;55.63;;;28.30;;
17826;SDS011;9038;48.208;16.308;2022-12-26T03:09:29;56.63;;;28.03;;
17826;SDS011;9038;48.208;16.308;2022-12-26T03:11:53;49.87;;;27.07;;
17826;SDS011;9038;48.208;16.308;2022-12-26T03:14:15;45.23;;;26.30;;
17826;SDS011;9038;48.208;16.308;2022-12-26T03:16:20;47.90;;;27.80;;
17826;SDS011;9038;48.208;16.308;2022-12-26T03:18:42;57.30;;;28.93;;
17826;SDS011;9038;48.208;16.308;2022-12-26T03:20:48;52.83;;;29.20;;
17826;SDS011;9038;48.208;16.308;2022-12-26T03:22:52;53.47;;;28.50;;
17826;SDS011;9038;48.208;16.308;2022-12-26T03:24:55;58.30;;;28.70;;
17826;SDS011;9038;48.208;16.308;2022-12-26T03:27:17;66.60;;;27.10;;
17826;SDS011;9038;48.208;16.308;2022-12-26T03:29:20;61.70;;;28.73;;
17826;SDS011;9038;48.208;16.308;2022-12-26T03:31:41;59.10;;;27.60;;
17826;SDS011;9038;48.208;16.308;2022-12-26T03:33:44;46.07;;;25.07;;
17826;SDS011;9038;48.208;16.308;2022-12-26T03:36:09;52.07;;;23.70;;
17826;SDS011;9038;48.208;16.308;2022-12-26T03:38:13;49.63;;;24.63;;
17826;SDS011;9038;48.208;16.308;2022-12-26T03:40:27;44.97;;;24.23;;
17826;SDS011;9038;48.208;16.308;2022-12-26T03:43:06;40.57;;;22.57;;
17826;SDS011;9038;48.208;16.308;2022-12-26T03:45:36;38.77;;;22.30;;
17826;SDS011;9038;48.208;16.308;2022-12-26T03:48:03;46.37;;;23.23;;
17826;SDS011;9038;48.208;16.308;2022-12-26T03:50:30;52.90;;;22.93;;
17826;SDS011;9038;48.208;16.308;2022-12-26T03:52:55;63.63;;;22.87;;
17826;SDS011;9038;48.208;16.308;2022-12-26T03:55:22;46.43;;;23.03;;
17826;SDS011;9038;48.208;16.308;2022-12-26T03:57:46;48.53;;;22.83;;
17826;SDS011;9038;48.208;16.308;2022-12-26T04:00:09;56.53;;;23.67;;
17826;SDS011;9038;48.208;16.308;2022-12-26T04:02:38;54.37;;;23.13;;
17826;SDS011;9038;48.208;16.308;2022-12-26T04:05:02;83.53;;;24.07;;
17826;SDS011;9038;48.208;16.308;2022-12-26T04:07:24;49.40;;;22.93;;
17826;SDS011;9038;48.208;16.308;2022-12-26T04:09:48;65.70;;;24.13;;
17826;SDS011;9038;48.208;16.308;2022-12-26T04:12:12;63.73;;;23.57;;
17826;SDS011;9038;48.208;16.308;2022-12-26T04:14:37;44.23;;;21.90;;
17826;SDS011;9038;48.208;16.308;2022-12-26T04:17:16;59.33;;;22.87;;
17826;SDS011;9038;48.208;16.308;2022-12-26T04:19:46;58.70;;;23.17;;
17826;SDS011;9038;48.208;16.308;2022-12-26T04:21:58;84.63;;;24.23;;
17826;SDS011;9038;48.208;16.308;2022-12-26T04:24:25;78.90;;;22.83;;
17826;SDS011;9038;48.208;16.308;2022-12-26T04:26:50;103.03;;;25.03;;
17826;SDS011;9038;48.208;16.308;2022-12-26T04:29:12;95.43;;;23.57;;
17826;SDS011;9038;48.208;16.308;2022-12-26T04:31:33;70.27;;;23.20;;
17826;SDS011;9038;48.208;16.308;2022-12-26T04:33:57;74.20;;;23.40;;
17826;SDS011;9038;48.208;16.308;2022-12-26T04:36:21;71.77;;;22.67;;
17826;SDS011;9038;48.208;16.308;2022-12-26T04:38:47;46.80;;;22.27;;
17826;SDS011;9038;48.208;16.308;2022-12-26T04:41:11;108.57;;;23.67;;
17826;SDS011;9038;48.208;16.308;2022-12-26T04:43:34;59.37;;;22.97;;
17826;SDS011;9038;48.208;16.308;2022-12-26T04:45:54;62.60;;;23.10;;
17826;SDS011;9038;48.208;16.308;2022-12-26T04:47:56;52.47;;;22.23;;
17826;SDS011;9038;48.208;16.308;2022-12-26T04:50:16;68.20;;;23.20;;
17826;SDS011;9038;48.208;16.308;2022-12-26T04:52:18;63.77;;;23.63;;
17826;SDS011;9038;48.208;16.308;2022-12-26T04:54:20;49.57;;;23.87;;
17826;SDS011;9038;48.208;16.308;2022-12-26T04:56:22;54.70;;;23.83;;
17826;SDS011;9038;48.208;16.308;2022-12-26T04:58:24;58.73;;;23.83;;
17826;SDS011;9038;48.208;16.308;2022-12-26T05:00:28;84.63;;;25.53;;
17826;SDS011;9038;48.208;16.308;2022-12-26T05:02:30;68.27;;;25.50;;
17826;SDS011;9038;48.208;16.308;2022-12-26T05:04:49;59.30;;;24.33;;
17826;SDS011;9038;48.208;16.308;2022-12-26T05:07:10;50.10;;;25.23;;
17826;SDS011;9038;48.208;16.308;2022-12-26T05:09:33;48.60;;;24.87;;
17826;SDS011;9038;48.208;16.308;2022-12-26T05:11:36;68.90;;;38.47;;
17826;SDS011;9038;48.208;16.308;2022-12-26T05:13:37;53.20;;;27.03;;
17826;SDS011;9038;48.208;16.308;2022-12-26T05:15:41;57.53;;;25.90;;
17826;SDS011;9038;48.208;16.308;2022-12-26T05:17:57;191.00;;;37.60;;
17826;SDS011;9038;48.208;16.308;2022-12-26T05:20:16;54.77;;;26.80;;
17826;SDS011;9038;48.208;16.308;2022-12-26T05:22:44;137.07;;;32.00;;
17826;SDS011;9038;48.208;16.308;2022-12-26T05:25:07;129.50;;;31.10;;
17826;SDS011;9038;48.208;16.308;2022-12-26T05:27:34;123.80;;;28.73;;
17826;SDS011;9038;48.208;16.308;2022-12-26T05:29:56;119.70;;;27.73;;
17826;SDS011;9038;48.208;16.308;2022-12-26T05:32:00;175.53;;;31.87;;
17826;SDS011;9038;48.208;16.308;2022-12-26T05:34:02;64.63;;;27.33;;
17826;SDS011;9038;48.208;16.308;2022-12-26T05:36:06;108.13;;;27.70;;
17826;SDS011;9038;48.208;16.308;2022-12-26T05:38:09;70.00;;;24.87;;
17826;SDS011;9038;48.208;16.308;2022-12-26T05:40:11;101.97;;;24.27;;
17826;SDS011;9038;48.208;16.308;2022-12-26T05:42:13;103.33;;;24.27;;
17826;SDS011;9038;48.208;16.308;2022-12-26T05:44:15;84.80;;;24.17;;
17826;SDS011;9038;48.208;16.308;2022-12-26T05:46:17;301.40;;;33.63;;
17826;SDS011;9038;48.208;16.308;2022-12-26T05:48:20;128.13;;;26.83;;
17826;SDS011;9038;48.208;16.308;2022-12-26T05:50:22;150.90;;;27.00;;
17826;SDS011;9038;48.208;16.308;2022-12-26T05:52:24;84.40;;;25.23;;
17826;SDS011;9038;48.208;16.308;2022-12-26T05:54:26;80.87;;;24.23;;
17826;SDS011;9038;48.208;16.308;2022-12-26T05:56:28;93.43;;;26.30;;
17826;SDS011;9038;48.208;16.308;2022-12-26T05:58:30;73.90;;;25.63;;
17826;SDS011;9038;48.208;16.308;2022-12-26T06:00:32;82.33;;;25.67;;
17826;SDS011;9038;48.208;16.308;2022-12-26T06:02:34;252.00;;;35.23;;
17826;SDS011;9038;48.208;16.308;2022-12-26T06:04:38;115.47;;;26.83;;
17826;SDS011;9038;48.208;16.308;2022-12-26T06:06:40;76.50;;;24.53;;
17826;SDS011;9038;48.208;16.308;2022-12-26T06:08:42;104.73;;;24.90;;
17826;SDS011;9038;48.208;16.308;2022-12-26T06:10:44;66.63;;;24.17;;
17826;SDS011;9038;48.208;16.308;2022-12-26T06:12:46;111.70;;;26.20;;
17826;SDS011;9038;48.208;16.308;2022-12-26T06:14:48;86.80;;;25.40;;
17826;SDS011;9038;48.208;16.308;2022-12-26T06:16:50;211.03;;;29.47;;
17826;SDS011;9038;48.208;16.308;2022-12-26T06:18:53;109.27;;;28.67;;
17826;SDS011;9038;48.208;16.308;2022-12-26T06:20:56;92.47;;;26.67;;
17826;SDS011;9038;48.208;16.308;2022-12-26T06:22:58;123.43;;;27.33;;
17826;SDS011;9038;48.208;16.308;2022-12-26T06:25:00;172.67;;;30.17;;
17826;SDS011;9038;48.208;16.308;2022-12-26T06:27:02;112.43;;;26.03;;
17826;SDS011;9038;48.208;16.308;2022-12-26T06:29:04;106.30;;;26.20;;
17826;SDS011;9038;48.208;16.308;2022-12-26T06:31:06;169.00;;;27.87;;
17826;SDS011;9038;48.208;16.308;2022-12-26T06:33:10;97.23;;;25.67;;
17826;SDS011;9038;48.208;16.308;2022-12-26T06:35:12;86.97;;;24.77;;
17826;SDS011;9038;48.208;16.308;2022-12-26T06:37:15;116.07;;;27.10;;
17826;SDS011;9038;48.208;16.308;2022-12-26T06:39:17;114.60;;;26.20;;
17826;SDS011;9038;48.208;16.308;2022-12-26T06:41:20;101.30;;;26.23;;
17826;SDS011;9038;48.208;16.308;2022-12-26T06:43:23;131.97;;;27.80;;
17826;SDS011;9038;48.208;16.308;2022-12-26T06:45:25;112.13;;;27.27;;
17826;SDS011;9038;48.208;16.308;2022-12-26T06:47:27;69.13;;;24.53;;
17826;SDS011;9038;48.208;16.308;2022-12-26T06:49:29;86.13;;;25.10;;
17826;SDS011;9038;48.208;16.308;2022-12-26T06:51:31;64.70;;;23.63;;
17826;SDS011;9038;48.208;16.308;2022-12-26T06:53:35;93.77;;;23.33;;
17826;SDS011;9038;48.208;16.308;2022-12-26T06:55:38;93.57;;;23.43;;
17826;SDS011;9038;48.208;16.308;2022-12-26T06:57:40;75.60;;;23.50;;
17826;SDS011;9038;48.208;16.308;2022-12-26T06:59:42;88.37;;;24.07;;
17826;SDS011;9038;48.208;16.308;2022-12-26T07:01:43;96.43;;;24.27;;
17826;SDS011;9038;48.208;16.308;2022-12-26T07:03:45;71.47;;;23.10;;
17826;SDS011;9038;48.208;16.308;2022-12-26T07:05:48;100.20;;;24.53;;
17826;SDS011;9038;48.208;16.308;2022-12-26T07:07:50;90.27;;;24.93;;
17826;SDS011;9038;48.208;16.308;2022-12-26T07:09:54;63.60;;;24.43;;
17826;SDS011;9038;48.208;16.308;2022-12-26T07:11:57;92.63;;;24.57;;
17826;SDS011;9038;48.208;16.308;2022-12-26T07:13:59;142.77;;;25.53;;
17826;SDS011;9038;48.208;16.308;2022-12-26T07:16:01;143.97;;;28.53;;
17826;SDS011;9038;48.208;16.308;2022-12-26T07:18:03;99.87;;;25.47;;
17826;SDS011;9038;48.208;16.308;2022-12-26T07:20:06;110.50;;;25.43;;
17826;SDS011;9038;48.208;16.308;2022-12-26T07:22:09;142.53;;;26.57;;
17826;SDS011;9038;48.208;16.308;2022-12-26T07:24:12;87.37;;;26.33;;
17826;SDS011;9038;48.208;16.308;2022-12-26T07:26:16;112.73;;;25.10;;
17826;SDS011;9038;48.208;16.308;2022-12-26T07:28:19;101.37;;;24.63;;
17826;SDS011;9038;48.208;16.308;2022-12-26T07:30:21;83.03;;;22.10;;
17826;SDS011;9038;48.208;16.308;2022-12-26T07:32:23;97.47;;;24.10;;
17826;SDS011;9038;48.208;16.308;2022-12-26T07:34:25;70.43;;;22.70;;
17826;SDS011;9038;48.208;16.308;2022-12-26T07:36:27;51.20;;;23.33;;
17826;SDS011;9038;48.208;16.308;2022-12-26T07:38:29;86.93;;;25.07;;
17826;SDS011;9038;48.208;16.308;2022-12-26T07:40:32;90.33;;;25.30;;
17826;SDS011;9038;48.208;16.308;2022-12-26T07:42:35;111.10;;;27.67;;
17826;SDS011;9038;48.208;16.308;2022-12-26T07:44:36;88.80;;;26.37;;
17826;SDS011;9038;48.208;16.308;2022-12-26T07:46:39;42.57;;;21.93;;
17826;SDS011;9038;48.208;16.308;2022-12-26T07:48:41;52.63;;;22.50;;
17826;SDS011;9038;48.208;16.308;2022-12-26T07:50:43;59.57;;;22.03;;
17826;SDS011;9038;48.208;16.308;2022-12-26T07:52:46;113.43;;;23.63;;
17826;SDS011;9038;48.208;16.308;2022-12-26T07:54:48;66.07;;;24.13;;
17826;SDS011;9038;48.208;16.308;2022-12-26T07:56:50;50.73;;;22.13;;
17826;SDS011;9038;48.208;16.308;2022-12-26T07:58:53;106.37;;;22.40;;
17826;SDS011;9038;48.208;16.308;2022-12-26T08:00:55;73.53;;;20.63;;
17826;SDS011;9038;48.208;16.308;2022-12-26T08:03:00;73.97;;;20.83;;
17826;SDS011;9038;48.208;16.308;2022-12-26T08:05:02;147.33;;;23.17;;
17826;SDS011;9038;48.208;16.308;2022-12-26T08:07:05;73.27;;;20.83;;
17826;SDS011;9038;48.208;16.308;2022-12-26T08:09:09;57.80;;;20.07;;
17826;SDS011;9038;48.208;16.308;2022-12-26T08:11:15;47.97;;;20.73;;
17826;SDS011;9038;48.208;16.308;2022-12-26T08:13:19;36.27;;;21.27;;
17826;SDS011;9038;48.208;16.308;2022-12-26T08:15:22;48.77;;;20.60;;
17826;SDS011;9038;48.208;16.308;2022-12-26T08:17:24;81.10;;;21.93;;
17826;SDS011;9038;48.208;16.308;2022-12-26T08:19:26;45.70;;;19.97;;
17826;SDS011;9038;48.208;16.308;2022-12-26T08:21:28;37.03;;;20.20;;
17826;SDS011;9038;48.208;16.308;2022-12-26T08:23:30;144.17;;;25.00;;
17826;SDS011;9038;48.208;16.308;2022-12-26T08:25:32;47.53;;;19.40;;
17826;SDS011;9038;48.208;16.308;2022-12-26T08:27:34;37.67;;;19.70;;
17826;SDS011;9038;48.208;16.308;2022-12-26T08:29:36;37.47;;;19.23;;
17826;SDS011;9038;48.208;16.308;2022-12-26T08:31:39;54.90;;;22.37;;
17826;SDS011;9038;48.208;16.308;2022-12-26T08:33:41;48.90;;;22.73;;
17826;SDS011;9038;48.208;16.308;2022-12-26T08:35:44;42.20;;;22.67;;
17826;SDS011;9038;48.208;16.308;2022-12-26T08:37:45;42.07;;;22.03;;
17826;SDS011;9038;48.208;16.308;2022-12-26T08:39:47;91.43;;;25.80;;
17826;SDS011;9038;48.208;16.308;2022-12-26T08:41:51;41.97;;;21.40;;
17826;SDS011;9038;48.208;16.308;2022-12-26T08:43:53;49.67;;;22.33;;
17826;SDS011;9038;48.208;16.308;2022-12-26T08:45:56;49.43;;;23.20;;
17826;SDS011;9038;48.208;16.308;2022-12-26T08:48:00;38.30;;;21.23;;
17826;SDS011;9038;48.208;16.308;2022-12-26T08:50:03;41.23;;;23.00;;
17826;SDS011;9038;48.208;16.308;2022-12-26T08:52:06;29.80;;;20.53;;
17826;SDS011;9038;48.208;16.308;2022-12-26T08:54:08;28.17;;;20.47;;
17826;SDS011;9038;48.208;16.308;2022-12-26T08:56:10;36.97;;;20.87;;
17826;SDS011;9038;48.208;16.308;2022-12-26T08:58:13;46.63;;;22.67;;
17826;SDS011;9038;48.208;16.308;2022-12-26T09:00:16;37.10;;;21.90;;
17826;SDS011;9038;48.208;16.308;2022-12-26T09:02:18;33.00;;;21.13;;
17826;SDS011;9038;48.208;16.308;2022-12-26T09:04:21;34.50;;;21.63;;
17826;SDS011;9038;48.208;16.308;2022-12-26T09:06:23;30.97;;;22.53;;
17826;SDS011;9038;48.208;16.308;2022-12-26T09:08:27;32.33;;;21.13;;
17826;SDS011;9038;48.208;16.308;2022-12-26T09:10:29;26.60;;;19.47;;
17826;SDS011;9038;48.208;16.308;2022-12-26T09:12:31;25.97;;;18.97;;
17826;SDS011;9038;48.208;16.308;2022-12-26T09:14:33;22.77;;;18.20;;
17826;SDS011;9038;48.208;16.308;2022-12-26T09:16:37;22.93;;;18.33;;
17826;SDS011;9038;48.208;16.308;2022-12-26T09:18:41;26.23;;;19.30;;
17826;SDS011;9038;48.208;16.308;2022-12-26T09:20:45;22.73;;;18.07;;
17826;SDS011;9038;48.208;16.308;2022-12-26T09:22:47;25.37;;;19.17;;
17826;SDS011;9038;48.208;16.308;2022-12-26T09:24:53;25.13;;;19.00;;
17826;SDS011;9038;48.208;16.308;2022-12-26T09:26:55;27.53;;;19.10;;
17826;SDS011;9038;48.208;16.308;2022-12-26T09:28:57;21.93;;;17.60;;
17826;SDS011;9038;48.208;16.308;2022-12-26T09:30:59;25.87;;;19.47;;
17826;SDS011;9038;48.208;16.308;2022-12-26T09:33:01;23.50;;;18.63;;
17826;SDS011;9038;48.208;16.308;2022-12-26T09:35:07;24.93;;;19.63;;
17826;SDS011;9038;48.208;16.308;2022-12-26T09:37:10;25.67;;;20.13;;
17826;SDS011;9038;48.208;16.308;2022-12-26T09:39:12;23.40;;;18.43;;
17826;SDS011;9038;48.208;16.308;2022-12-26T09:41:22;22.43;;;17.23;;
17826;SDS011;9038;48.208;16.308;2022-12-26T09:43:38;24.27;;;18.90;;
17826;SDS011;9038;48.208;16.308;2022-12-26T09:45:53;22.13;;;17.57;;
17826;SDS011;9038;48.208;16.308;2022-12-26T09:48:09;22.37;;;18.27;;
17826;SDS011;9038;48.208;16.308;2022-12-26T09:50:20;22.37;;;17.50;;
17826;SDS011;9038;48.208;16.308;2022-12-26T09:52:31;19.60;;;16.73;;
17826;SDS011;9038;48.208;16.308;2022-12-26T09:54:39;22.13;;;17.60;;
17826;SDS011;9038;48.208;16.308;2022-12-26T09:56:47;21.07;;;16.90;;
17826;SDS011;9038;48.208;16.308;2022-12-26T09:58:52;21.60;;;17.73;;
17826;SDS011;9038;48.208;16.308;2022-12-26T10:00:59;19.30;;;16.70;;
17826;SDS011;9038;48.208;16.308;2022-12-26T10:03:04;20.77;;;17.47;;
17826;SDS011;9038;48.208;16.308;2022-12-26T10:05:11;19.77;;;17.67;;
17826;SDS011;9038;48.208;16.308;2022-12-26T10:07:16;20.70;;;16.90;;
17826;SDS011;9038;48.208;16.308;2022-12-26T10:09:29;22.20;;;18.50;;
17826;SDS011;9038;48.208;16.308;2022-12-26T10:11:57;21.90;;;18.47;;
17826;SDS011;9038;48.208;16.308;2022-12-26T10:14:09;20.40;;;16.80;;
17826;SDS011;9038;48.208;16.308;2022-12-26T10:16:18;20.30;;;17.30;;
17826;SDS011;9038;48.208;16.308;2022-12-26T10:18:29;23.17;;;19.17;;
17826;SDS011;9038;48.208;16.308;2022-12-26T10:20:41;19.97;;;17.27;;
17826;SDS011;9038;48.208;16.308;2022-12-26T10:23:17;19.20;;;17.10;;
17826;SDS011;9038;48.208;16.308;2022-12-26T10:25:31;20.67;;;18.47;;
17826;SDS011;9038;48.208;16.308;2022-12-26T10:27:39;24.13;;;18.87;;
17826;SDS011;9038;48.208;16.308;2022-12-26T10:29:45;20.50;;;17.80;;
17826;SDS011;9038;48.208;16.308;2022-12-26T10:31:51;21.20;;;18.13;;
17826;SDS011;9038;48.208;16.308;2022-12-26T10:33:57;24.77;;;18.67;;
17826;SDS011;9038;48.208;16.308;2022-12-26T10:36:04;26.00;;;20.23;;
17826;SDS011;9038;48.208;16.308;2022-12-26T10:38:10;23.57;;;18.93;;
17826;SDS011;9038;48.208;16.308;2022-12-26T10:40:18;24.73;;;20.67;;
17826;SDS011;9038;48.208;16.308;2022-12-26T10:42:26;25.07;;;19.77;;
17826;SDS011;9038;48.208;16.308;2022-12-26T10:44:31;25.73;;;20.63;;
17826;SDS011;9038;48.208;16.308;2022-12-26T10:46:46;25.30;;;20.43;;
17826;SDS011;9038;48.208;16.308;2022-12-26T10:49:11;24.10;;;19.73;;
17826;SDS011;9038;48.208;16.308;2022-12-26T10:51:16;21.20;;;18.27;;
17826;SDS011;9038;48.208;16.308;2022-12-26T10:53:19;25.90;;;19.60;;
17826;SDS011;9038;48.208;16.308;2022-12-26T10:55:22;22.83;;;19.27;;
17826;SDS011;9038;48.208;16.308;2022-12-26T10:57:30;22.70;;;18.83;;
17826;SDS011;9038;48.208;16.308;2022-12-26T10:59:38;22.50;;;18.67;;
17826;SDS011;9038;48.208;16.308;2022-12-26T11:01:42;28.10;;;20.33;;
17826;SDS011;9038;48.208;16.308;2022-12-26T11:03:52;23.60;;;19.43;;
17826;SDS011;9038;48.208;16.308;2022-12-26T11:05:55;23.80;;;19.23;;
17826;SDS011;9038;48.208;16.308;2022-12-26T11:08:05;22.97;;;19.17;;
17826;SDS011;9038;48.208;16.308;2022-12-26T11:10:16;22.27;;;17.80;;
17826;SDS011;9038;48.208;16.308;2022-12-26T11:12:22;25.40;;;19.83;;
17826;SDS011;9038;48.208;16.308;2022-12-26T11:14:29;24.27;;;19.83;;
17826;SDS011;9038;48.208;16.308;2022-12-26T11:16:35;27.73;;;21.03;;
17826;SDS011;9038;48.208;16.308;2022-12-26T11:18:45;26.30;;;20.83;;
17826;SDS011;9038;48.208;16.308;2022-12-26T11:20:48;28.07;;;21.43;;
17826;SDS011;9038;48.208;16.308;2022-12-26T11:22:50;26.63;;;21.43;;
17826;SDS011;9038;48.208;16.308;2022-12-26T11:25:10;29.20;;;21.43;;
17826;SDS011;9038;48.208;16.308;2022-12-26T11:27:18;27.43;;;20.73;;
17826;SDS011;9038;48.208;16.308;2022-12-26T11:29:24;24.50;;;20.40;;
17826;SDS011;9038;48.208;16.308;2022-12-26T11:31:27;26.33;;;20.80;;
17826;SDS011;9038;48.208;16.308;2022-12-26T11:33:31;28.80;;;21.33;;
17826;SDS011;9038;48.208;16.308;2022-12-26T11:35:36;30.37;;;22.07;;
17826;SDS011;9038;48.208;16.308;2022-12-26T11:37:46;30.87;;;23.10;;
17826;SDS011;9038;48.208;16.308;2022-12-26T11:39:52;28.07;;;22.87;;
17826;SDS011;9038;48.208;16.308;2022-12-26T11:41:55;29.33;;;21.57;;
17826;SDS011;9038;48.208;16.308;2022-12-26T11:44:02;29.57;;;21.87;;
17826;SDS011;9038;48.208;16.308;2022-12-26T11:46:16;28.60;;;22.50;;
17826;SDS011;9038;48.208;16.308;2022-12-26T11:48:22;28.60;;;22.40;;
17826;SDS011;9038;48.208;16.308;2022-12-26T11:50:28;31.60;;;22.80;;
17826;SDS011;9038;48.208;16.308;2022-12-26T11:52:35;28.97;;;22.37;;
17826;SDS011;9038;48.208;16.308;2022-12-26T11:54:46;29.17;;;22.97;;
17826;SDS011;9038;48.208;16.308;2022-12-26T11:56:58;28.93;;;21.00;;
17826;SDS011;9038;48.208;16.308;2022-12-26T11:59:05;29.83;;;21.67;;
17826;SDS011;9038;48.208;16.308;2022-12-26T12:01:17;28.80;;;22.10;;
17826;SDS011;9038;48.208;16.308;2022-12-26T12:03:30;28.00;;;21.57;;
17826;SDS011;9038;48.208;16.308;2022-12-26T12:05:38;29.40;;;22.67;;
17826;SDS011;9038;48.208;16.308;2022-12-26T12:07:52;35.77;;;25.73;;
17826;SDS011;9038;48.208;16.308;2022-12-26T12:12:50;31.73;;;22.50;;
17826;SDS011;9038;48.208;16.308;2022-12-26T12:14:58;27.70;;;21.87;;
17826;SDS011;9038;48.208;16.308;2022-12-26T12:17:11;29.00;;;20.93;;
17826;SDS011;9038;48.208;16.308;2022-12-26T12:19:26;29.30;;;22.07;;
17826;SDS011;9038;48.208;16.308;2022-12-26T12:21:43;28.27;;;21.53;;
17826;SDS011;9038;48.208;16.308;2022-12-26T12:23:52;27.10;;;22.00;;
17826;SDS011;9038;48.208;16.308;2022-12-26T12:26:08;28.73;;;21.60;;
17826;SDS011;9038;48.208;16.308;2022-12-26T12:28:17;29.73;;;22.77;;
17826;SDS011;9038;48.208;16.308;2022-12-26T12:30:33;29.57;;;23.03;;
17826;SDS011;9038;48.208;16.308;2022-12-26T12:32:46;28.57;;;22.27;;